DTKA/TBJ METAR and TAF weather

Enter ICAO airport designator
Station Type Date Time Source
DTKA METAR 2020/04/06 19:00 UTC NOAA

DTKA 061900Z 10004KT 9999 FEW020 14/09 Q1024 NOSIG


Station Type Date Time Source
DTKA Decoded METAR 2020/04/06 19:00 UTC NOAA

Tabarka, Tunisia (DTKA) 36-57N 008-45E 21M
Apr 06, 2020 - 03:00 PM EDT / 2020.04.06 1900 UTC
Wind: from the E (100 degrees) at 5 MPH (4 KT):0
Visibility: greater than 7 mile(s):0
Sky conditions: mostly clear
Temperature: 57 F (14 C)
Dew Point: 48 F (9 C)
Relative Humidity: 71%
Pressure (altimeter): 30.24 in. Hg (1024 hPa)
ob: DTKA 061900Z 10004KT 9999 FEW020 14/09 Q1024 NOSIG
cycle: 19

Station Type Date Time Source
DTKA TAF 2018/07/22 13:33 UTC NOAA

TAF TAF DTKA 221200Z 2213/2322 23005KT 9999 FEW020 PROB30
TEMPO 2217/2222 4000 -TSRA FEW026CB

Example: see airport list